Terminal Aerodrome Forecast
Issued by NWS Newport/Morehead City, NC

Home | Current Version | Previous Version | Text Only | Print | Product List | Glossary On
Versions: 1 2 3 4 5 6 7 8 9 10 11 12 13
387
FTUS42 KMHX 272330
TAFEWN
TAF
KEWN 272330Z 2800/2824 19007KT P6SM SCT250
     FM280600 23005KT P6SM BKN130
     FM281700 29005KT P6SM SCT250=

USA.gov is the U.S. government's official web portal to all federal, state and local government web resources and services.